^^
Station Historical Data
Daily Summary for February 25, 2018 Units:  Both    English   Metric
« Previous Day
Next Day »
Daily Weekly Monthly Yearly Custom
  High: Low: Average:
Temperature: TemperatureF °F /  -17.8 °C 63.9 °F /  17.7 °C 79.3 °F /  26.3 °C
Dew Point: DewpointF °F /  -17.8 °C 38.3 °F /  3.5 °C 43.7 °F /  6.5 °C
Humidity: Humidity% 17% 30%
Wind Speed: WindSpeedMPHmph /  0km/h - 2.8mph /  4.5km/h
Wind Gust: WindSpeedGustMPHmph /  0km/h - -
Wind- - South
Pressure: PressureIn in /  0 hPa 29.58 in /  1001.6 hPa -
Precipitation: 0.00 in /  0 mm    
Historical Graphs
 
 
Tabular Data for February 25, 2018
Time Temperature Dew Point Pressure Wind Wind Speed Wind Gust Humidity Rainfall Rate (Hourly) solar Conditions
TemperatureF °F /  -17.8 °C DewpointF °F /  -17.8 °C PressureInin /  0hPa Calm     Humidity% HourlyPrecipInin /  0mm SolarRadiationWatts/m^2 W/m2 Conditions
05:31 64.6 °F /  18.1 °C 39.0 °F /  3.9 °C 29.66in /  1004.3hPa SE 0.9mph /  1.4km/h 1.0mph /  1.6km/h 39% 0.00in /  0mm 0.0 W/m2
05:36 64.4 °F /  18 °C 38.3 °F /  3.5 °C 29.66in /  1004.3hPa South 0.9mph /  1.4km/h 4.0mph /  6.4km/h 38% 0.00in /  0mm 0.0 W/m2
05:41 64.2 °F /  17.9 °C 38.7 °F /  3.7 °C 29.66in /  1004.3hPa Calm   3.0mph /  4.8km/h 39% 0.00in /  0mm 0.0 W/m2
05:46 64.4 °F /  18 °C 39.6 °F /  4.2 °C 29.66in /  1004.3hPa Calm   8.0mph /  12.9km/h 40% 0.00in /  0mm 0.0 W/m2
05:52 64.6 °F /  18.1 °C 39.7 °F /  4.3 °C 29.66in /  1004.3hPa SSE 0.9mph /  1.4km/h 3.0mph /  4.8km/h 40% 0.00in /  0mm 0.0 W/m2
05:57 64.6 °F /  18.1 °C 39.7 °F /  4.3 °C 29.67in /  1004.6hPa SSW 0.9mph /  1.4km/h 3.0mph /  4.8km/h 40% 0.00in /  0mm 0.0 W/m2
06:02 64.6 °F /  18.1 °C 39.7 °F /  4.3 °C 29.67in /  1004.6hPa Calm   3.0mph /  4.8km/h 40% 0.00in /  0mm 0.0 W/m2
06:07 64.8 °F /  18.2 °C 39.9 °F /  4.4 °C 29.67in /  1004.6hPa Calm   6.0mph /  9.7km/h 40% 0.00in /  0mm 0.0 W/m2
06:12 64.8 °F /  18.2 °C 39.9 °F /  4.4 °C 29.67in /  1004.6hPa Calm   5.0mph /  8km/h 40% 0.00in /  0mm 0.0 W/m2
06:18 64.8 °F /  18.2 °C 40.5 °F /  4.7 °C 29.67in /  1004.6hPa Calm   4.0mph /  6.4km/h 41% 0.00in /  0mm 0.0 W/m2
06:20 64.8 °F /  18.2 °C 40.5 °F /  4.7 °C 29.67in /  1004.6hPa Calm   5.0mph /  8km/h 41% 0.00in /  0mm 0.0 W/m2
06:25 64.6 °F /  18.1 °C 40.3 °F /  4.6 °C 29.67in /  1004.6hPa South 2.0mph /  3.2km/h 4.0mph /  6.4km/h 41% 0.00in /  0mm 0.0 W/m2
06:31 64.6 °F /  18.1 °C 41.0 °F /  5 °C 29.67in /  1004.6hPa Calm   2.0mph /  3.2km/h 42% 0.00in /  0mm 0.0 W/m2
06:36 64.6 °F /  18.1 °C 41.0 °F /  5 °C 29.67in /  1004.6hPa Calm   4.0mph /  6.4km/h 42% 0.00in /  0mm 0.0 W/m2
06:42 64.6 °F /  18.1 °C 41.0 °F /  5 °C 29.67in /  1004.6hPa SSE 6.0mph /  9.7km/h 6.0mph /  9.7km/h 42% 0.00in /  0mm 0.0 W/m2
06:47 64.4 °F /  18 °C 40.8 °F /  4.9 °C 29.67in /  1004.6hPa SSE 2.0mph /  3.2km/h 3.0mph /  4.8km/h 42% 0.00in /  0mm 0.0 W/m2
06:52 64.2 °F /  17.9 °C 40.6 °F /  4.8 °C 29.67in /  1004.6hPa SSW 2.9mph /  4.7km/h 6.0mph /  9.7km/h 42% 0.00in /  0mm 5.0 W/m2
06:53 64.2 °F /  17.9 °C 40.6 °F /  4.8 °C 29.67in /  1004.6hPa SE 4.9mph /  7.9km/h 6.0mph /  9.7km/h 42% 0.00in /  0mm 5.0 W/m2
06:58 64.2 °F /  17.9 °C 40.6 °F /  4.8 °C 29.67in /  1004.6hPa Calm   3.0mph /  4.8km/h 42% 0.00in /  0mm 9.0 W/m2
07:04 64.0 °F /  17.8 °C 41.2 °F /  5.1 °C 29.67in /  1004.6hPa SSE 2.9mph /  4.7km/h 5.0mph /  8km/h 43% 0.00in /  0mm 11.0 W/m2
07:09 64.0 °F /  17.8 °C 41.2 °F /  5.1 °C 29.67in /  1004.6hPa South 2.9mph /  4.7km/h 6.0mph /  9.7km/h 43% 0.00in /  0mm 12.0 W/m2
07:14 63.9 °F /  17.7 °C 41.0 °F /  5 °C 29.67in /  1004.6hPa Calm   7.0mph /  11.3km/h 43% 0.00in /  0mm 14.0 W/m2
07:19 64.0 °F /  17.8 °C 41.2 °F /  5.1 °C 29.68in /  1005hPa South 0.9mph /  1.4km/h 5.0mph /  8km/h 43% 0.00in /  0mm 16.0 W/m2
07:25 64.0 °F /  17.8 °C 41.7 °F /  5.4 °C 29.68in /  1005hPa South 0.9mph /  1.4km/h 4.0mph /  6.4km/h 44% 0.00in /  0mm 16.0 W/m2
07:37 64.0 °F /  17.8 °C 41.7 °F /  5.4 °C 29.69in /  1005.3hPa SW 6.9mph /  11.1km/h 8.0mph /  12.9km/h 44% 0.00in /  0mm 19.0 W/m2
07:42 64.0 °F /  17.8 °C 41.7 °F /  5.4 °C 29.69in /  1005.3hPa SE 8.1mph /  13km/h 8.1mph /  13km/h 44% 0.00in /  0mm 21.0 W/m2
07:47 64.2 °F /  17.9 °C 41.9 °F /  5.5 °C 29.69in /  1005.3hPa WSW 8.1mph /  13km/h 8.1mph /  13km/h 44% 0.00in /  0mm 21.0 W/m2
07:53 64.2 °F /  17.9 °C 41.9 °F /  5.5 °C 29.69in /  1005.3hPa SSE 4.0mph /  6.4km/h 8.0mph /  12.9km/h 44% 0.00in /  0mm 23.0 W/m2
07:58 64.4 °F /  18 °C 42.1 °F /  5.6 °C 29.69in /  1005.3hPa South 6.9mph /  11.1km/h 10.0mph /  16.1km/h 44% 0.00in /  0mm 26.0 W/m2
08:03 64.6 °F /  18.1 °C 42.3 °F /  5.7 °C 29.69in /  1005.3hPa South 2.0mph /  3.2km/h 6.0mph /  9.7km/h 44% 0.00in /  0mm 26.0 W/m2
08:08 64.8 °F /  18.2 °C 42.3 °F /  5.7 °C 29.69in /  1005.3hPa ESE 2.9mph /  4.7km/h 5.0mph /  8km/h 44% 0.00in /  0mm 26.0 W/m2
08:13 64.9 °F /  18.3 °C 41.9 °F /  5.5 °C 29.69in /  1005.3hPa SSW 2.9mph /  4.7km/h 10.0mph /  16.1km/h 43% 0.00in /  0mm 26.0 W/m2
08:19 65.1 °F /  18.4 °C 41.5 °F /  5.3 °C 29.69in /  1005.3hPa SSW 6.9mph /  11.1km/h 7.0mph /  11.3km/h 42% 0.00in /  0mm 28.0 W/m2
08:24 65.7 °F /  18.7 °C 41.9 °F /  5.5 °C 29.69in /  1005.3hPa South 4.0mph /  6.4km/h 8.0mph /  12.9km/h 42% 0.00in /  0mm 30.0 W/m2
08:29 65.8 °F /  18.8 °C 41.5 °F /  5.3 °C 29.69in /  1005.3hPa SE 2.0mph /  3.2km/h 10.0mph /  16.1km/h 41% 0.00in /  0mm 32.0 W/m2
08:35 66.4 °F /  19.1 °C 41.4 °F /  5.2 °C 29.69in /  1005.3hPa South 4.0mph /  6.4km/h 8.0mph /  12.9km/h 40% 0.00in /  0mm 32.0 W/m2
08:40 66.9 °F /  19.4 °C 41.9 °F /  5.5 °C 29.69in /  1005.3hPa WSW 2.0mph /  3.2km/h 4.0mph /  6.4km/h 40% 0.00in /  0mm 32.0 W/m2
08:45 67.3 °F /  19.6 °C 42.1 °F /  5.6 °C 29.69in /  1005.3hPa SE 2.0mph /  3.2km/h 8.0mph /  12.9km/h 40% 0.00in /  0mm 33.0 W/m2
08:50 67.6 °F /  19.8 °C 40.5 °F /  4.7 °C 29.69in /  1005.3hPa SSE 6.9mph /  11.1km/h 8.0mph /  12.9km/h 37% 0.00in /  0mm 39.0 W/m2
08:55 68.4 °F /  20.2 °C 41.0 °F /  5 °C 29.69in /  1005.3hPa SSE 0.9mph /  1.4km/h 4.0mph /  6.4km/h 37% 0.00in /  0mm 97.0 W/m2
09:00 69.3 °F /  20.7 °C 40.5 °F /  4.7 °C 29.69in /  1005.3hPa SSE 6.9mph /  11.1km/h 9.0mph /  14.5km/h 35% 0.00in /  0mm 513.0 W/m2
09:06 70.0 °F /  21.1 °C 40.3 °F /  4.6 °C 29.69in /  1005.3hPa SE 0.9mph /  1.4km/h 9.0mph /  14.5km/h 34% 0.00in /  0mm 533.0 W/m2
09:11 70.5 °F /  21.4 °C 40.8 °F /  4.9 °C 29.69in /  1005.3hPa ESE 6.0mph /  9.7km/h 10.0mph /  16.1km/h 34% 0.00in /  0mm 550.0 W/m2
09:16 71.2 °F /  21.8 °C 41.4 °F /  5.2 °C 29.69in /  1005.3hPa SSW 2.9mph /  4.7km/h 7.0mph /  11.3km/h 34% 0.00in /  0mm 570.0 W/m2
09:21 72.1 °F /  22.3 °C 41.4 °F /  5.2 °C 29.69in /  1005.3hPa SE 6.9mph /  11.1km/h 8.0mph /  12.9km/h 33% 0.00in /  0mm 589.0 W/m2
09:26 72.5 °F /  22.5 °C 42.6 °F /  5.9 °C 29.69in /  1005.3hPa ESE 4.9mph /  7.9km/h 9.0mph /  14.5km/h 34% 0.00in /  0mm 608.0 W/m2
09:31 73.0 °F /  22.8 °C 43.0 °F /  6.1 °C 29.69in /  1005.3hPa SE 2.9mph /  4.7km/h 9.0mph /  14.5km/h 34% 0.00in /  0mm 626.0 W/m2
09:36 73.8 °F /  23.2 °C 43.7 °F /  6.5 °C 29.69in /  1005.3hPa ESE 8.1mph /  13km/h 12.0mph /  19.3km/h 34% 0.00in /  0mm 643.0 W/m2
09:41 74.1 °F /  23.4 °C 42.4 °F /  5.8 °C 29.69in /  1005.3hPa SE 6.0mph /  9.7km/h 10.0mph /  16.1km/h 32% 0.00in /  0mm 663.0 W/m2
09:46 74.3 °F /  23.5 °C 43.3 °F /  6.3 °C 29.69in /  1005.3hPa South 2.0mph /  3.2km/h 6.0mph /  9.7km/h 33% 0.00in /  0mm 682.0 W/m2
09:51 74.7 °F /  23.7 °C 43.7 °F /  6.5 °C 29.69in /  1005.3hPa ESE 2.0mph /  3.2km/h 6.0mph /  9.7km/h 33% 0.00in /  0mm 698.0 W/m2
09:57 75.2 °F /  24 °C 44.1 °F /  6.7 °C 29.69in /  1005.3hPa ESE 2.0mph /  3.2km/h 11.0mph /  17.7km/h 33% 0.00in /  0mm 714.0 W/m2
10:03 75.6 °F /  24.2 °C 45.1 °F /  7.3 °C 29.69in /  1005.3hPa Calm   10.0mph /  16.1km/h 34% 0.00in /  0mm 731.0 W/m2
10:08 75.9 °F /  24.4 °C 44.8 °F /  7.1 °C 29.69in /  1005.3hPa East 2.9mph /  4.7km/h 7.0mph /  11.3km/h 33% 0.00in /  0mm 751.0 W/m2
10:13 76.6 °F /  24.8 °C 45.3 °F /  7.4 °C 29.69in /  1005.3hPa ENE 8.9mph /  14.3km/h 9.0mph /  14.5km/h 33% 0.00in /  0mm 765.0 W/m2
10:18 77.2 °F /  25.1 °C 44.2 °F /  6.8 °C 29.69in /  1005.3hPa SE 0.9mph /  1.4km/h 12.0mph /  19.3km/h 31% 0.00in /  0mm 780.0 W/m2
10:24 77.7 °F /  25.4 °C 46.4 °F /  8 °C 29.69in /  1005.3hPa SSE 6.0mph /  9.7km/h 12.0mph /  19.3km/h 33% 0.00in /  0mm 798.0 W/m2
10:29 78.1 °F /  25.6 °C 45.9 °F /  7.7 °C 29.69in /  1005.3hPa ENE 6.9mph /  11.1km/h 10.0mph /  16.1km/h 32% 0.00in /  0mm 814.0 W/m2
10:34 78.3 °F /  25.7 °C 46.0 °F /  7.8 °C 29.69in /  1005.3hPa ENE 8.9mph /  14.3km/h 10.0mph /  16.1km/h 32% 0.00in /  0mm 826.0 W/m2
10:39 78.6 °F /  25.9 °C 46.2 °F /  7.9 °C 29.69in /  1005.3hPa NNW 4.0mph /  6.4km/h 10.0mph /  16.1km/h 32% 0.00in /  0mm 842.0 W/m2
10:44 79.0 °F /  26.1 °C 46.6 °F /  8.1 °C 29.69in /  1005.3hPa NE 4.9mph /  7.9km/h 12.0mph /  19.3km/h 32% 0.00in /  0mm 854.0 W/m2
10:50 79.5 °F /  26.4 °C 46.2 °F /  7.9 °C 29.69in /  1005.3hPa East 6.0mph /  9.7km/h 9.0mph /  14.5km/h 31% 0.00in /  0mm 867.0 W/m2
10:56 79.7 °F /  26.5 °C 45.5 °F /  7.5 °C 29.69in /  1005.3hPa SSE 4.9mph /  7.9km/h 11.0mph /  17.7km/h 30% 0.00in /  0mm 882.0 W/m2
11:01 79.9 °F /  26.6 °C 45.7 °F /  7.6 °C 29.69in /  1005.3hPa NNE 2.9mph /  4.7km/h 6.0mph /  9.7km/h 30% 0.00in /  0mm 895.0 W/m2
11:06 80.4 °F /  26.9 °C 45.3 °F /  7.4 °C 29.69in /  1005.3hPa NE 2.0mph /  3.2km/h 12.0mph /  19.3km/h 29% 0.00in /  0mm 907.0 W/m2
11:11 80.8 °F /  27.1 °C 46.4 °F /  8 °C 29.68in /  1005hPa ESE 6.0mph /  9.7km/h 11.0mph /  17.7km/h 30% 0.00in /  0mm 916.0 W/m2
11:16 81.0 °F /  27.2 °C 45.7 °F /  7.6 °C 29.68in /  1005hPa NNE 8.1mph /  13km/h 10.0mph /  16.1km/h 29% 0.00in /  0mm 928.0 W/m2
11:21 81.1 °F /  27.3 °C 45.9 °F /  7.7 °C 29.69in /  1005.3hPa East 6.0mph /  9.7km/h 13.0mph /  20.9km/h 29% 0.00in /  0mm 937.0 W/m2
11:26 81.3 °F /  27.4 °C 46.0 °F /  7.8 °C 29.68in /  1005hPa NE 4.9mph /  7.9km/h 11.0mph /  17.7km/h 29% 0.00in /  0mm 946.0 W/m2
11:32 81.9 °F /  27.7 °C 46.4 °F /  8 °C 29.68in /  1005hPa NNE 2.0mph /  3.2km/h 7.0mph /  11.3km/h 29% 0.00in /  0mm 956.0 W/m2
11:37 82.0 °F /  27.8 °C 45.7 °F /  7.6 °C 29.68in /  1005hPa East 2.9mph /  4.7km/h 8.0mph /  12.9km/h 28% 0.00in /  0mm 963.0 W/m2
11:42 82.6 °F /  28.1 °C 46.2 °F /  7.9 °C 29.68in /  1005hPa East 8.1mph /  13km/h 12.0mph /  19.3km/h 28% 0.00in /  0mm 972.0 W/m2
11:47 82.8 °F /  28.2 °C 47.3 °F /  8.5 °C 29.68in /  1005hPa NE 2.0mph /  3.2km/h 10.0mph /  16.1km/h 29% 0.00in /  0mm 979.0 W/m2
11:52 82.9 °F /  28.3 °C 47.5 °F /  8.6 °C 29.68in /  1005hPa SE 4.0mph /  6.4km/h 6.0mph /  9.7km/h 29% 0.00in /  0mm 983.0 W/m2
11:57 83.7 °F /  28.7 °C 47.1 °F /  8.4 °C 29.68in /  1005hPa NE 2.9mph /  4.7km/h 12.0mph /  19.3km/h 28% 0.00in /  0mm 993.0 W/m2
12:02 84.0 °F /  28.9 °C 46.4 °F /  8 °C 29.67in /  1004.6hPa ESE 6.0mph /  9.7km/h 11.0mph /  17.7km/h 27% 0.00in /  0mm 1000.0 W/m2
12:07 84.2 °F /  29 °C 46.6 °F /  8.1 °C 29.67in /  1004.6hPa East 8.1mph /  13km/h 11.0mph /  17.7km/h 27% 0.00in /  0mm 1004.0 W/m2
12:12 84.6 °F /  29.2 °C 46.9 °F /  8.3 °C 29.67in /  1004.6hPa ENE 0.9mph /  1.4km/h 9.0mph /  14.5km/h 27% 0.00in /  0mm 1009.0 W/m2
12:17 84.7 °F /  29.3 °C 47.1 °F /  8.4 °C 29.67in /  1004.6hPa ESE 0.9mph /  1.4km/h 9.0mph /  14.5km/h 27% 0.00in /  0mm 1009.0 W/m2
12:23 85.3 °F /  29.6 °C 46.6 °F /  8.1 °C 29.67in /  1004.6hPa NNE 4.9mph /  7.9km/h 9.0mph /  14.5km/h 26% 0.00in /  0mm 1018.0 W/m2
12:28 85.5 °F /  29.7 °C 46.6 °F /  8.1 °C 29.67in /  1004.6hPa Calm   3.0mph /  4.8km/h 26% 0.00in /  0mm 1021.0 W/m2
12:33 85.8 °F /  29.9 °C 46.9 °F /  8.3 °C 29.67in /  1004.6hPa NNW 2.0mph /  3.2km/h 3.0mph /  4.8km/h 26% 0.00in /  0mm 1023.0 W/m2
12:38 86.2 °F /  30.1 °C 47.3 °F /  8.5 °C 29.67in /  1004.6hPa ENE 4.9mph /  7.9km/h 7.0mph /  11.3km/h 26% 0.00in /  0mm 1025.0 W/m2
12:43 86.2 °F /  30.1 °C 46.2 °F /  7.9 °C 29.67in /  1004.6hPa NE 6.9mph /  11.1km/h 7.0mph /  11.3km/h 25% 0.00in /  0mm 1027.0 W/m2
12:48 86.0 °F /  30 °C 47.1 °F /  8.4 °C 29.66in /  1004.3hPa SSE 4.0mph /  6.4km/h 8.0mph /  12.9km/h 26% 0.00in /  0mm 1028.0 W/m2
12:53 86.0 °F /  30 °C 47.1 °F /  8.4 °C 29.66in /  1004.3hPa SSE 2.0mph /  3.2km/h 11.0mph /  17.7km/h 26% 0.00in /  0mm 1028.0 W/m2
12:58 85.8 °F /  29.9 °C 48.0 °F /  8.9 °C 29.66in /  1004.3hPa NNW 2.0mph /  3.2km/h 6.0mph /  9.7km/h 27% 0.00in /  0mm 1028.0 W/m2
13:03 86.2 °F /  30.1 °C 47.3 °F /  8.5 °C 29.66in /  1004.3hPa SE 4.0mph /  6.4km/h 9.0mph /  14.5km/h 26% 0.00in /  0mm 1028.0 W/m2
13:08 86.2 °F /  30.1 °C 47.3 °F /  8.5 °C 29.66in /  1004.3hPa North 2.0mph /  3.2km/h 8.0mph /  12.9km/h 26% 0.00in /  0mm 1027.0 W/m2
13:14 86.5 °F /  30.3 °C 46.6 °F /  8.1 °C 29.66in /  1004.3hPa East 0.9mph /  1.4km/h 5.0mph /  8km/h 25% 0.00in /  0mm 1027.0 W/m2
13:19 86.7 °F /  30.4 °C 46.8 °F /  8.2 °C 29.65in /  1003.9hPa Calm   3.0mph /  4.8km/h 25% 0.00in /  0mm 1021.0 W/m2
13:24 87.4 °F /  30.8 °C 46.2 °F /  7.9 °C 29.65in /  1003.9hPa NE 4.0mph /  6.4km/h 9.0mph /  14.5km/h 24% 0.00in /  0mm 1023.0 W/m2
13:29 87.6 °F /  30.9 °C 46.4 °F /  8 °C 29.65in /  1003.9hPa North 4.0mph /  6.4km/h 10.0mph /  16.1km/h 24% 0.00in /  0mm 1023.0 W/m2
13:34 87.8 °F /  31 °C 45.3 °F /  7.4 °C 29.64in /  1003.6hPa NE 4.9mph /  7.9km/h 9.0mph /  14.5km/h 23% 0.00in /  0mm 1018.0 W/m2
13:39 88.0 °F /  31.1 °C 46.6 °F /  8.1 °C 29.64in /  1003.6hPa WSW 0.9mph /  1.4km/h 4.0mph /  6.4km/h 24% 0.00in /  0mm 1009.0 W/m2
13:44 88.3 °F /  31.3 °C 45.9 °F /  7.7 °C 29.64in /  1003.6hPa NE 6.0mph /  9.7km/h 9.0mph /  14.5km/h 23% 0.00in /  0mm 1009.0 W/m2
13:49 88.9 °F /  31.6 °C 46.2 °F /  7.9 °C 29.64in /  1003.6hPa NE 6.9mph /  11.1km/h 10.0mph /  16.1km/h 23% 0.00in /  0mm 1000.0 W/m2
13:55 89.1 °F /  31.7 °C 45.3 °F /  7.4 °C 29.63in /  1003.3hPa SE 2.0mph /  3.2km/h 3.0mph /  4.8km/h 22% 0.00in /  0mm 993.0 W/m2
14:00 89.2 °F /  31.8 °C 44.2 °F /  6.8 °C 29.63in /  1003.3hPa West 2.9mph /  4.7km/h 6.0mph /  9.7km/h 21% 0.00in /  0mm 1013.0 W/m2
14:06 89.2 °F /  31.8 °C 44.2 °F /  6.8 °C 29.63in /  1003.3hPa Calm   7.0mph /  11.3km/h 21% 0.00in /  0mm 986.0 W/m2
14:11 89.8 °F /  32.1 °C 43.3 °F /  6.3 °C 29.63in /  1003.3hPa WSW 2.0mph /  3.2km/h 5.0mph /  8km/h 20% 0.00in /  0mm 991.0 W/m2
14:16 90.1 °F /  32.3 °C 43.7 °F /  6.5 °C 29.63in /  1003.3hPa Calm   4.0mph /  6.4km/h 20% 0.00in /  0mm 991.0 W/m2
14:21 90.1 °F /  32.3 °C 43.7 °F /  6.5 °C 29.63in /  1003.3hPa Calm   5.0mph /  8km/h 20% 0.00in /  0mm 990.0 W/m2
14:27 90.1 °F /  32.3 °C 43.7 °F /  6.5 °C 29.63in /  1003.3hPa West 2.9mph /  4.7km/h 8.0mph /  12.9km/h 20% 0.00in /  0mm 974.0 W/m2
14:32 89.4 °F /  31.9 °C 44.4 °F /  6.9 °C 29.63in /  1003.3hPa NNW 4.0mph /  6.4km/h 7.0mph /  11.3km/h 21% 0.00in /  0mm 988.0 W/m2
14:37 89.6 °F /  32 °C 43.2 °F /  6.2 °C 29.63in /  1003.3hPa SSE 2.9mph /  4.7km/h 7.0mph /  11.3km/h 20% 0.00in /  0mm 986.0 W/m2
14:43 89.8 °F /  32.1 °C 43.3 °F /  6.3 °C 29.62in /  1002.9hPa West 2.0mph /  3.2km/h 11.0mph /  17.7km/h 20% 0.00in /  0mm 951.0 W/m2
14:48 90.3 °F /  32.4 °C 43.9 °F /  6.6 °C 29.63in /  1003.3hPa Calm   4.0mph /  6.4km/h 20% 0.00in /  0mm 928.0 W/m2
14:53 90.7 °F /  32.6 °C 42.8 °F /  6 °C 29.62in /  1002.9hPa West 0.9mph /  1.4km/h 11.0mph /  17.7km/h 19% 0.00in /  0mm 925.0 W/m2
14:59 90.7 °F /  32.6 °C 44.1 °F /  6.7 °C 29.62in /  1002.9hPa WSW 0.9mph /  1.4km/h 8.0mph /  12.9km/h 20% 0.00in /  0mm 919.0 W/m2
15:04 90.9 °F /  32.7 °C 43.0 °F /  6.1 °C 29.62in /  1002.9hPa North 0.9mph /  1.4km/h 3.0mph /  4.8km/h 19% 0.00in /  0mm 895.0 W/m2
15:09 91.4 °F /  33 °C 43.3 °F /  6.3 °C 29.62in /  1002.9hPa WNW 2.9mph /  4.7km/h 7.0mph /  11.3km/h 19% 0.00in /  0mm 891.0 W/m2
15:15 91.4 °F /  33 °C 41.9 °F /  5.5 °C 29.62in /  1002.9hPa SW 2.0mph /  3.2km/h 6.0mph /  9.7km/h 18% 0.00in /  0mm 882.0 W/m2
15:20 91.0 °F /  32.8 °C 43.0 °F /  6.1 °C 29.62in /  1002.9hPa NNE 2.0mph /  3.2km/h 6.0mph /  9.7km/h 19% 0.00in /  0mm 877.0 W/m2
15:25 91.4 °F /  33 °C 43.3 °F /  6.3 °C 29.62in /  1002.9hPa Calm   5.0mph /  8km/h 19% 0.00in /  0mm 872.0 W/m2
15:31 91.4 °F /  33 °C 43.3 °F /  6.3 °C 29.61in /  1002.6hPa NW 0.9mph /  1.4km/h 7.0mph /  11.3km/h 19% 0.00in /  0mm 877.0 W/m2
15:36 91.6 °F /  33.1 °C 42.1 °F /  5.6 °C 29.61in /  1002.6hPa NNW 2.0mph /  3.2km/h 3.0mph /  4.8km/h 18% 0.00in /  0mm 146.0 W/m2
15:41 91.2 °F /  32.9 °C 41.7 °F /  5.4 °C 29.61in /  1002.6hPa Calm   5.0mph /  8km/h 18% 0.00in /  0mm 130.0 W/m2
15:47 91.2 °F /  32.9 °C 41.7 °F /  5.4 °C 29.61in /  1002.6hPa South 0.9mph /  1.4km/h 3.0mph /  4.8km/h 18% 0.00in /  0mm 824.0 W/m2
15:52 91.2 °F /  32.9 °C 43.2 °F /  6.2 °C 29.61in /  1002.6hPa Calm   6.0mph /  9.7km/h 19% 0.00in /  0mm 118.0 W/m2
15:57 90.7 °F /  32.6 °C 42.8 °F /  6 °C 29.61in /  1002.6hPa NE 2.0mph /  3.2km/h 5.0mph /  8km/h 19% 0.00in /  0mm 97.0 W/m2
16:03 89.8 °F /  32.1 °C 42.1 °F /  5.6 °C 29.60in /  1002.3hPa North 4.9mph /  7.9km/h 5.0mph /  8km/h 19% 0.00in /  0mm 156.0 W/m2
16:08 89.8 °F /  32.1 °C 43.3 °F /  6.3 °C 29.60in /  1002.3hPa SSE 0.9mph /  1.4km/h 3.0mph /  4.8km/h 20% 0.00in /  0mm 786.0 W/m2
16:13 90.0 °F /  32.2 °C 43.5 °F /  6.4 °C 29.60in /  1002.3hPa SW 2.9mph /  4.7km/h 6.0mph /  9.7km/h 20% 0.00in /  0mm 754.0 W/m2
16:19 90.1 °F /  32.3 °C 42.3 °F /  5.7 °C 29.60in /  1002.3hPa Calm   4.0mph /  6.4km/h 19% 0.00in /  0mm 132.0 W/m2
16:24 89.6 °F /  32 °C 41.9 °F /  5.5 °C 29.59in /  1001.9hPa NNW 2.0mph /  3.2km/h 10.0mph /  16.1km/h 19% 0.00in /  0mm 719.0 W/m2
16:29 89.8 °F /  32.1 °C 42.1 °F /  5.6 °C 29.59in /  1001.9hPa NNW 2.0mph /  3.2km/h 5.0mph /  8km/h 19% 0.00in /  0mm 415.0 W/m2
16:35 90.0 °F /  32.2 °C 42.3 °F /  5.7 °C 29.59in /  1001.9hPa Calm   1.0mph /  1.6km/h 19% 0.00in /  0mm 671.0 W/m2
16:40 90.7 °F /  32.6 °C 42.8 °F /  6 °C 29.59in /  1001.9hPa SW 2.0mph /  3.2km/h 6.0mph /  9.7km/h 19% 0.00in /  0mm 640.0 W/m2
16:51 91.6 °F /  33.1 °C 42.1 °F /  5.6 °C 29.58in /  1001.6hPa Calm   4.0mph /  6.4km/h 18% 0.00in /  0mm 591.0 W/m2
16:56 91.9 °F /  33.3 °C 43.7 °F /  6.5 °C 29.58in /  1001.6hPa Calm   8.0mph /  12.9km/h 19% 0.00in /  0mm 566.0 W/m2
17:01 92.1 °F /  33.4 °C 43.9 °F /  6.6 °C 29.58in /  1001.6hPa Calm   7.0mph /  11.3km/h 19% 0.00in /  0mm 475.0 W/m2
17:07 91.9 °F /  33.3 °C 42.4 °F /  5.8 °C 29.58in /  1001.6hPa WNW 2.9mph /  4.7km/h 4.0mph /  6.4km/h 18% 0.00in /  0mm 499.0 W/m2
17:12 91.6 °F /  33.1 °C 42.1 °F /  5.6 °C 29.58in /  1001.6hPa NW 0.9mph /  1.4km/h 5.0mph /  8km/h 18% 0.00in /  0mm 497.0 W/m2
17:17 91.6 °F /  33.1 °C 42.1 °F /  5.6 °C 29.58in /  1001.6hPa WSW 0.9mph /  1.4km/h 4.0mph /  6.4km/h 18% 0.00in /  0mm 478.0 W/m2
17:23 91.8 °F /  33.2 °C 43.7 °F /  6.5 °C 29.58in /  1001.6hPa WNW 4.0mph /  6.4km/h 7.0mph /  11.3km/h 19% 0.00in /  0mm 468.0 W/m2
17:28 92.1 °F /  33.4 °C 43.9 °F /  6.6 °C 29.58in /  1001.6hPa West 0.9mph /  1.4km/h 6.0mph /  9.7km/h 19% 0.00in /  0mm 454.0 W/m2
17:33 92.3 °F /  33.5 °C 42.6 °F /  5.9 °C 29.58in /  1001.6hPa NNW 4.9mph /  7.9km/h 6.0mph /  9.7km/h 18% 0.00in /  0mm 436.0 W/m2
17:39 92.5 °F /  33.6 °C 41.4 °F /  5.2 °C 29.58in /  1001.6hPa WSW 2.0mph /  3.2km/h 6.0mph /  9.7km/h 17% 0.00in /  0mm 415.0 W/m2
17:44 92.1 °F /  33.4 °C 42.4 °F /  5.8 °C 29.58in /  1001.6hPa SSW 0.9mph /  1.4km/h 5.0mph /  8km/h 18% 0.00in /  0mm 403.0 W/m2
17:49 91.8 °F /  33.2 °C 42.3 °F /  5.7 °C 29.58in /  1001.6hPa WSW 4.9mph /  7.9km/h 11.0mph /  17.7km/h 18% 0.00in /  0mm 383.0 W/m2
17:55 90.9 °F /  32.7 °C 41.5 °F /  5.3 °C 29.58in /  1001.6hPa SSW 2.9mph /  4.7km/h 6.0mph /  9.7km/h 18% 0.00in /  0mm 364.0 W/m2
18:00 90.9 °F /  32.7 °C 41.5 °F /  5.3 °C 29.58in /  1001.6hPa Calm   4.0mph /  6.4km/h 18% 0.00in /  0mm 355.0 W/m2
18:05 91.2 °F /  32.9 °C 41.7 °F /  5.4 °C 29.58in /  1001.6hPa NNE 0.9mph /  1.4km/h 6.0mph /  9.7km/h 18% 0.00in /  0mm 336.0 W/m2
18:11 91.2 °F /  32.9 °C 43.2 °F /  6.2 °C 29.58in /  1001.6hPa West 8.1mph /  13km/h 9.0mph /  14.5km/h 19% 0.00in /  0mm 297.0 W/m2
18:16 90.9 °F /  32.7 °C 43.0 °F /  6.1 °C 29.58in /  1001.6hPa West 2.9mph /  4.7km/h 6.0mph /  9.7km/h 19% 0.00in /  0mm 267.0 W/m2
18:21 90.3 °F /  32.4 °C 42.4 °F /  5.8 °C 29.58in /  1001.6hPa South 6.9mph /  11.1km/h 8.0mph /  12.9km/h 19% 0.00in /  0mm 239.0 W/m2
18:27 89.4 °F /  31.9 °C 41.7 °F /  5.4 °C 29.58in /  1001.6hPa SSW 0.9mph /  1.4km/h 6.0mph /  9.7km/h 19% 0.00in /  0mm 211.0 W/m2
18:32 89.2 °F /  31.8 °C 43.0 °F /  6.1 °C 29.58in /  1001.6hPa SW 2.9mph /  4.7km/h 6.0mph /  9.7km/h 20% 0.00in /  0mm 185.0 W/m2
18:37 89.1 °F /  31.7 °C 42.8 °F /  6 °C 29.59in /  1001.9hPa SW 2.9mph /  4.7km/h 3.0mph /  4.8km/h 20% 0.00in /  0mm 156.0 W/m2
18:43 89.1 °F /  31.7 °C 42.8 °F /  6 °C 29.59in /  1001.9hPa WSW 2.9mph /  4.7km/h 8.0mph /  12.9km/h 20% 0.00in /  0mm 125.0 W/m2
18:48 88.5 °F /  31.4 °C 42.3 °F /  5.7 °C 29.59in /  1001.9hPa SW 2.0mph /  3.2km/h 6.0mph /  9.7km/h 20% 0.00in /  0mm 104.0 W/m2
18:53 88.2 °F /  31.2 °C 42.1 °F /  5.6 °C 29.59in /  1001.9hPa SSW 0.9mph /  1.4km/h 4.0mph /  6.4km/h 20% 0.00in /  0mm 83.0 W/m2
18:59 87.6 °F /  30.9 °C 42.8 °F /  6 °C 29.59in /  1001.9hPa Calm   5.0mph /  8km/h 21% 0.00in /  0mm 54.0 W/m2
19:04 87.3 °F /  30.7 °C 42.6 °F /  5.9 °C 29.59in /  1001.9hPa SSW 4.0mph /  6.4km/h 5.0mph /  8km/h 21% 0.00in /  0mm 33.0 W/m2
19:09 86.7 °F /  30.4 °C 44.4 °F /  6.9 °C 29.59in /  1001.9hPa South 6.0mph /  9.7km/h 7.0mph /  11.3km/h 23% 0.00in /  0mm 25.0 W/m2
19:15 85.6 °F /  29.8 °C 45.9 °F /  7.7 °C 29.59in /  1001.9hPa SSE 2.9mph /  4.7km/h 8.0mph /  12.9km/h 25% 0.00in /  0mm 16.0 W/m2
19:20 85.3 °F /  29.6 °C 46.6 °F /  8.1 °C 29.59in /  1001.9hPa SSE 0.9mph /  1.4km/h 6.0mph /  9.7km/h 26% 0.00in /  0mm 9.0 W/m2
19:25 84.7 °F /  29.3 °C 47.1 °F /  8.4 °C 29.59in /  1001.9hPa SE 4.9mph /  7.9km/h 5.0mph /  8km/h 27% 0.00in /  0mm 0.0 W/m2
19:31 84.2 °F /  29 °C 46.6 °F /  8.1 °C 29.59in /  1001.9hPa ESE 4.9mph /  7.9km/h 8.0mph /  12.9km/h 27% 0.00in /  0mm 0.0 W/m2
19:36 83.7 °F /  28.7 °C 46.2 °F /  7.9 °C 29.59in /  1001.9hPa SSW 2.9mph /  4.7km/h 8.0mph /  12.9km/h 27% 0.00in /  0mm 0.0 W/m2
19:41 83.3 °F /  28.5 °C 46.8 °F /  8.2 °C 29.59in /  1001.9hPa Calm   7.0mph /  11.3km/h 28% 0.00in /  0mm 0.0 W/m2
19:47 82.8 °F /  28.2 °C 46.4 °F /  8 °C 29.60in /  1002.3hPa SW 2.0mph /  3.2km/h 4.0mph /  6.4km/h 28% 0.00in /  0mm 0.0 W/m2
19:52 82.6 °F /  28.1 °C 46.2 °F /  7.9 °C 29.61in /  1002.6hPa Calm   7.0mph /  11.3km/h 28% 0.00in /  0mm 0.0 W/m2
19:57 82.2 °F /  27.9 °C 45.9 °F /  7.7 °C 29.61in /  1002.6hPa Calm   5.0mph /  8km/h 28% 0.00in /  0mm 0.0 W/m2
20:03 81.9 °F /  27.7 °C 44.6 °F /  7 °C 29.61in /  1002.6hPa SSW 6.0mph /  9.7km/h 12.0mph /  19.3km/h 27% 0.00in /  0mm 0.0 W/m2
20:08 81.3 °F /  27.4 °C 44.1 °F /  6.7 °C 29.62in /  1002.9hPa WSW 0.9mph /  1.4km/h 10.0mph /  16.1km/h 27% 0.00in /  0mm 0.0 W/m2
20:13 81.0 °F /  27.2 °C 44.8 °F /  7.1 °C 29.62in /  1002.9hPa SW 4.9mph /  7.9km/h 9.0mph /  14.5km/h 28% 0.00in /  0mm 0.0 W/m2
20:19 80.2 °F /  26.8 °C 45.1 °F /  7.3 °C 29.62in /  1002.9hPa SW 4.9mph /  7.9km/h 8.0mph /  12.9km/h 29% 0.00in /  0mm 0.0 W/m2
20:24 79.9 °F /  26.6 °C 45.7 °F /  7.6 °C 29.62in /  1002.9hPa West 0.9mph /  1.4km/h 8.0mph /  12.9km/h 30% 0.00in /  0mm 0.0 W/m2
20:29 79.3 °F /  26.3 °C 46.0 °F /  7.8 °C 29.63in /  1003.3hPa SW 8.1mph /  13km/h 10.0mph /  16.1km/h 31% 0.00in /  0mm 0.0 W/m2
20:35 78.4 °F /  25.8 °C 46.2 °F /  7.9 °C 29.64in /  1003.6hPa SSW 0.9mph /  1.4km/h 9.0mph /  14.5km/h 32% 0.00in /  0mm 0.0 W/m2
20:40 78.3 °F /  25.7 °C 46.0 °F /  7.8 °C 29.64in /  1003.6hPa SSW 4.9mph /  7.9km/h 8.0mph /  12.9km/h 32% 0.00in /  0mm 0.0 W/m2
20:45 77.9 °F /  25.5 °C 45.7 °F /  7.6 °C 29.64in /  1003.6hPa WSW 4.0mph /  6.4km/h 5.0mph /  8km/h 32% 0.00in /  0mm 0.0 W/m2
20:51 77.7 °F /  25.4 °C 45.5 °F /  7.5 °C 29.64in /  1003.6hPa WSW 2.9mph /  4.7km/h 8.0mph /  12.9km/h 32% 0.00in /  0mm 0.0 W/m2
20:56 77.5 °F /  25.3 °C 46.2 °F /  7.9 °C 29.65in /  1003.9hPa SW 4.0mph /  6.4km/h 4.0mph /  6.4km/h 33% 0.00in /  0mm 0.0 W/m2
21:01 77.4 °F /  25.2 °C 46.0 °F /  7.8 °C 29.65in /  1003.9hPa WSW 6.0mph /  9.7km/h 7.0mph /  11.3km/h 33% 0.00in /  0mm 0.0 W/m2
21:06 77.2 °F /  25.1 °C 45.9 °F /  7.7 °C 29.65in /  1003.9hPa WSW 2.9mph /  4.7km/h 7.0mph /  11.3km/h 33% 0.00in /  0mm 0.0 W/m2
21:11 76.8 °F /  24.9 °C 46.4 °F /  8 °C 29.65in /  1003.9hPa WSW 2.9mph /  4.7km/h 8.0mph /  12.9km/h 34% 0.00in /  0mm 0.0 W/m2
21:16 76.6 °F /  24.8 °C 46.2 °F /  7.9 °C 29.65in /  1003.9hPa Calm   6.0mph /  9.7km/h 34% 0.00in /  0mm 0.0 W/m2
21:21 76.5 °F /  24.7 °C 46.0 °F /  7.8 °C 29.66in /  1004.3hPa West 2.9mph /  4.7km/h 5.0mph /  8km/h 34% 0.00in /  0mm 0.0 W/m2
21:26 76.5 °F /  24.7 °C 46.0 °F /  7.8 °C 29.66in /  1004.3hPa Calm   6.0mph /  9.7km/h 34% 0.00in /  0mm 0.0 W/m2
21:31 76.5 °F /  24.7 °C 46.0 °F /  7.8 °C 29.66in /  1004.3hPa Calm   2.0mph /  3.2km/h 34% 0.00in /  0mm 0.0 W/m2
21:36 76.5 °F /  24.7 °C 46.0 °F /  7.8 °C 29.67in /  1004.6hPa South 0.9mph /  1.4km/h 5.0mph /  8km/h 34% 0.00in /  0mm 0.0 W/m2
21:41 76.5 °F /  24.7 °C 46.0 °F /  7.8 °C 29.67in /  1004.6hPa South 0.9mph /  1.4km/h 4.0mph /  6.4km/h 34% 0.00in /  0mm 0.0 W/m2
21:46 76.5 °F /  24.7 °C 46.0 °F /  7.8 °C 29.67in /  1004.6hPa Calm   3.0mph /  4.8km/h 34% 0.00in /  0mm 0.0 W/m2
21:51 76.5 °F /  24.7 °C 46.0 °F /  7.8 °C 29.67in /  1004.6hPa Calm     34% 0.00in /  0mm 0.0 W/m2
21:56 76.5 °F /  24.7 °C 46.0 °F /  7.8 °C 29.67in /  1004.6hPa SE 2.0mph /  3.2km/h 3.0mph /  4.8km/h 34% 0.00in /  0mm 0.0 W/m2
22:01 76.5 °F /  24.7 °C 46.0 °F /  7.8 °C 29.67in /  1004.6hPa SE 4.0mph /  6.4km/h 6.0mph /  9.7km/h 34% 0.00in /  0mm 0.0 W/m2
22:06 76.3 °F /  24.6 °C 45.9 °F /  7.7 °C 29.68in /  1005hPa SSE 0.9mph /  1.4km/h 6.0mph /  9.7km/h 34% 0.00in /  0mm 0.0 W/m2
22:11 76.3 °F /  24.6 °C 45.9 °F /  7.7 °C 29.68in /  1005hPa SE 2.0mph /  3.2km/h 6.0mph /  9.7km/h 34% 0.00in /  0mm 0.0 W/m2
22:17 76.1 °F /  24.5 °C 45.7 °F /  7.6 °C 29.68in /  1005hPa SE 4.0mph /  6.4km/h 6.0mph /  9.7km/h 34% 0.00in /  0mm 0.0 W/m2
22:22 75.9 °F /  24.4 °C 45.5 °F /  7.5 °C 29.68in /  1005hPa SSE 2.0mph /  3.2km/h 6.0mph /  9.7km/h 34% 0.00in /  0mm 0.0 W/m2
22:28 75.7 °F /  24.3 °C 45.3 °F /  7.4 °C 29.68in /  1005hPa SSE 2.0mph /  3.2km/h 5.0mph /  8km/h 34% 0.00in /  0mm 0.0 W/m2
22:33 75.7 °F /  24.3 °C 46.2 °F /  7.9 °C 29.68in /  1005hPa South 2.0mph /  3.2km/h 7.0mph /  11.3km/h 35% 0.00in /  0mm 0.0 W/m2
22:38 75.6 °F /  24.2 °C 46.0 °F /  7.8 °C 29.68in /  1005hPa Calm   4.0mph /  6.4km/h 35% 0.00in /  0mm 0.0 W/m2
22:43 75.4 °F /  24.1 °C 45.9 °F /  7.7 °C 29.68in /  1005hPa SSE 2.0mph /  3.2km/h 2.0mph /  3.2km/h 35% 0.00in /  0mm 0.0 W/m2
22:48 75.4 °F /  24.1 °C 45.9 °F /  7.7 °C 29.68in /  1005hPa Calm   3.0mph /  4.8km/h 35% 0.00in /  0mm 0.0 W/m2
22:54 75.0 °F /  23.9 °C 45.5 °F /  7.5 °C 29.68in /  1005hPa Calm   3.0mph /  4.8km/h 35% 0.00in /  0mm 0.0 W/m2
22:59 75.0 °F /  23.9 °C 45.5 °F /  7.5 °C 29.68in /  1005hPa South 2.9mph /  4.7km/h 4.0mph /  6.4km/h 35% 0.00in /  0mm 0.0 W/m2
23:05 74.7 °F /  23.7 °C 45.1 °F /  7.3 °C 29.68in /  1005hPa Calm   4.0mph /  6.4km/h 35% 0.00in /  0mm 0.0 W/m2
23:10 74.5 °F /  23.6 °C 45.9 °F /  7.7 °C 29.69in /  1005.3hPa SSE 2.9mph /  4.7km/h 5.0mph /  8km/h 36% 0.00in /  0mm 0.0 W/m2
23:15 74.1 °F /  23.4 °C 45.5 °F /  7.5 °C 29.69in /  1005.3hPa ESE 2.0mph /  3.2km/h 7.0mph /  11.3km/h 36% 0.00in /  0mm 0.0 W/m2
23:21 74.1 °F /  23.4 °C 45.5 °F /  7.5 °C 29.68in /  1005hPa South 2.0mph /  3.2km/h 6.0mph /  9.7km/h 36% 0.00in /  0mm 0.0 W/m2
23:26 73.9 °F /  23.3 °C 45.3 °F /  7.4 °C 29.68in /  1005hPa SE 8.9mph /  14.3km/h 10.0mph /  16.1km/h 36% 0.00in /  0mm 0.0 W/m2
23:31 73.9 °F /  23.3 °C 45.3 °F /  7.4 °C 29.68in /  1005hPa SSE 8.9mph /  14.3km/h 9.0mph /  14.5km/h 36% 0.00in /  0mm 0.0 W/m2
23:36 73.9 °F /  23.3 °C 44.6 °F /  7 °C 29.68in /  1005hPa SSE 2.0mph /  3.2km/h 9.0mph /  14.5km/h 35% 0.00in /  0mm 0.0 W/m2
23:41 74.1 °F /  23.4 °C 44.8 °F /  7.1 °C 29.68in /  1005hPa SSE 6.0mph /  9.7km/h 8.0mph /  12.9km/h 35% 0.00in /  0mm 0.0 W/m2
23:46 74.1 °F /  23.4 °C 44.8 °F /  7.1 °C 29.68in /  1005hPa East 4.0mph /  6.4km/h 7.0mph /  11.3km/h 35% 0.00in /  0mm 0.0 W/m2
23:51 74.3 °F /  23.5 °C 45.0 °F /  7.2 °C 29.68in /  1005hPa SSW 4.9mph /  7.9km/h 10.0mph /  16.1km/h 35% 0.00in /  0mm 0.0 W/m2
23:56 74.1 °F /  23.4 °C 44.8 °F /  7.1 °C 29.68in /  1005hPa SSE 4.9mph /  7.9km/h 11.0mph /  17.7km/h 35% 0.00in /  0mm 0.0 W/m2
Olympia, Windhoek, Namibia
Compliments of Weather Underground - 3 mb